createdAt,value
2019-03-18T00:02:52.561Z,2.50
2019-03-18T00:07:58.087Z,2.80
2019-03-18T00:13:03.550Z,2.37
2019-03-18T00:18:09.060Z,2.60
2019-03-18T00:23:14.569Z,2.30
2019-03-18T00:28:20.048Z,2.63
2019-03-18T00:33:25.537Z,3.23
2019-03-18T00:38:31.228Z,3.70
2019-03-18T00:43:36.755Z,3.20
2019-03-18T00:48:42.425Z,3.47
2019-03-18T00:53:47.897Z,3.30
2019-03-18T00:58:53.510Z,3.50
2019-03-18T01:03:58.994Z,3.40
2019-03-18T01:09:05.850Z,3.60
2019-03-18T01:14:11.536Z,4.07
2019-03-18T01:19:17.007Z,3.87
2019-03-18T01:24:22.685Z,3.93
2019-03-18T01:29:28.159Z,3.33
2019-03-18T01:34:33.845Z,3.67
2019-03-18T01:39:39.390Z,3.43
2019-03-18T01:44:45.069Z,3.60
2019-03-18T01:49:50.826Z,3.57
2019-03-18T01:54:56.354Z,3.73
2019-03-18T02:00:02.022Z,3.90
2019-03-18T02:05:07.625Z,3.40
2019-03-18T02:10:13.348Z,3.90
2019-03-18T02:15:18.839Z,3.80
2019-03-18T02:20:24.417Z,3.20
2019-03-18T02:25:29.982Z,3.40
2019-03-18T02:30:35.531Z,3.30
2019-03-18T02:35:41.054Z,3.23
2019-03-18T02:40:46.518Z,3.00
2019-03-18T02:45:52.077Z,2.77
2019-03-18T02:50:57.613Z,2.47
2019-03-18T02:56:03.076Z,2.70
2019-03-18T03:01:08.563Z,3.20
2019-03-18T03:06:14.083Z,2.70
2019-03-18T03:11:19.673Z,2.80
2019-03-18T03:16:27.181Z,3.27
2019-03-18T03:21:32.325Z,3.10
2019-03-18T03:26:37.825Z,2.80
2019-03-18T03:31:43.344Z,3.10
2019-03-18T03:36:48.854Z,3.10
2019-03-18T03:41:54.337Z,3.27
2019-03-18T03:46:59.803Z,3.20
2019-03-18T03:52:05.319Z,3.60
2019-03-18T03:57:10.790Z,3.10
2019-03-18T04:02:16.286Z,3.60
2019-03-18T04:07:21.789Z,3.20
2019-03-18T04:12:27.295Z,3.63
2019-03-18T04:17:32.761Z,3.30
2019-03-18T04:22:38.247Z,3.23
2019-03-18T04:27:43.826Z,3.30
2019-03-18T04:32:49.500Z,3.60
2019-03-18T04:37:55.301Z,3.43
2019-03-18T04:43:00.843Z,3.30
2019-03-18T04:48:06.345Z,4.13
2019-03-18T04:53:11.834Z,3.97
2019-03-18T04:58:17.321Z,3.70
2019-03-18T05:03:22.794Z,4.00
2019-03-18T05:08:28.276Z,4.20
2019-03-18T05:13:33.797Z,3.30
2019-03-18T05:18:39.373Z,4.33
2019-03-18T05:23:44.856Z,3.87
2019-03-18T05:28:50.454Z,3.70
2019-03-18T05:33:56.034Z,4.23
2019-03-18T05:39:01.521Z,3.50
2019-03-18T05:44:08.029Z,4.20
2019-03-18T05:49:13.805Z,3.83
2019-03-18T05:54:19.304Z,3.60
2019-03-18T05:59:24.828Z,3.83
2019-03-18T06:04:30.532Z,3.80
2019-03-18T06:09:36.078Z,4.60
2019-03-18T06:14:41.573Z,4.00
2019-03-18T06:19:47.057Z,4.00
2019-03-18T06:24:52.563Z,3.83
2019-03-18T06:29:58.111Z,4.63
2019-03-18T06:35:03.582Z,4.87
2019-03-18T06:40:09.652Z,4.93
2019-03-18T06:45:15.137Z,4.30
2019-03-18T06:50:20.678Z,4.83
2019-03-18T06:55:26.375Z,5.57
2019-03-18T07:00:31.871Z,4.90
2019-03-18T07:05:37.369Z,4.80
2019-03-18T07:10:42.909Z,4.23
2019-03-18T07:15:48.404Z,4.60
2019-03-18T07:20:53.991Z,4.10
2019-03-18T07:25:59.620Z,5.23
2019-03-18T07:31:05.164Z,4.47
2019-03-18T07:36:10.650Z,4.13
2019-03-18T07:41:16.233Z,4.50
2019-03-18T07:46:21.855Z,4.33
2019-03-18T07:51:27.628Z,4.83
2019-03-18T07:56:33.220Z,4.23
2019-03-18T08:01:38.841Z,3.43
2019-03-18T08:06:44.495Z,3.40
2019-03-18T08:11:49.997Z,3.30
2019-03-18T08:16:55.595Z,3.60
2019-03-18T08:22:01.252Z,4.13
2019-03-18T08:27:06.757Z,3.40
2019-03-18T08:32:12.274Z,3.87
2019-03-18T08:37:17.766Z,3.30
2019-03-18T08:42:23.266Z,3.43
2019-03-18T08:47:28.794Z,3.80
2019-03-18T08:52:34.395Z,3.27
2019-03-18T08:57:40.010Z,3.00
2019-03-18T09:02:45.578Z,3.10
2019-03-18T09:07:51.044Z,2.63
2019-03-18T09:12:56.571Z,2.17
2019-03-18T09:18:02.154Z,2.20
2019-03-18T09:23:07.656Z,2.60
2019-03-18T09:28:13.145Z,2.50
2019-03-18T09:33:18.634Z,2.80
2019-03-18T09:38:24.119Z,2.40
2019-03-18T09:43:29.672Z,1.90
2019-03-18T09:48:35.306Z,2.30
2019-03-18T09:53:40.828Z,2.10
2019-03-18T09:58:46.323Z,2.43
2019-03-18T10:03:51.813Z,1.50
2019-03-18T10:08:57.402Z,1.67
2019-03-18T10:14:03.059Z,1.67
2019-03-18T10:19:08.756Z,1.50
2019-03-18T10:24:14.310Z,1.90
2019-03-18T10:29:21.715Z,2.10
2019-03-18T10:34:27.204Z,2.40
2019-03-18T10:39:32.727Z,2.37
2019-03-18T10:44:38.299Z,2.30
2019-03-18T10:49:46.548Z,2.17
2019-03-18T10:54:51.118Z,2.27
2019-03-18T10:59:56.717Z,2.27
2019-03-18T11:05:02.297Z,2.40
2019-03-18T11:10:08.702Z,2.80
2019-03-18T11:15:14.292Z,2.40
2019-03-18T11:20:19.817Z,2.50
2019-03-18T11:25:25.331Z,1.90
2019-03-18T11:30:30.859Z,2.17
2019-03-18T11:35:36.446Z,2.50
2019-03-18T11:40:41.960Z,2.37
2019-03-18T11:45:47.450Z,2.50
2019-03-18T11:50:53.175Z,2.40
2019-03-18T11:55:58.678Z,2.33
2019-03-18T12:01:04.166Z,1.83
2019-03-18T12:06:09.666Z,2.20
2019-03-18T12:11:15.137Z,1.60
2019-03-18T12:16:20.649Z,1.73
2019-03-18T12:21:26.220Z,2.67
2019-03-18T12:26:31.706Z,2.03
2019-03-18T12:31:37.200Z,2.10
2019-03-18T12:36:42.747Z,2.43
2019-03-18T12:41:48.284Z,2.53
2019-03-18T12:46:54.077Z,1.77
2019-03-18T12:51:59.610Z,1.90
2019-03-18T12:57:05.327Z,1.83
2019-03-18T13:02:10.883Z,1.90
2019-03-18T13:07:16.611Z,2.63
2019-03-18T13:12:22.097Z,2.17
2019-03-18T13:17:27.604Z,1.87
2019-03-18T13:22:33.257Z,2.10
2019-03-18T13:27:38.808Z,2.20
2019-03-18T13:32:44.427Z,2.00
2019-03-18T13:37:49.898Z,2.10
2019-03-18T13:42:55.450Z,2.27
2019-03-18T13:48:01.077Z,2.70
2019-03-18T13:53:06.641Z,2.57
2019-03-18T13:58:12.168Z,2.43
2019-03-18T14:03:17.773Z,2.60
2019-03-18T14:08:23.282Z,2.10
2019-03-18T14:13:28.857Z,1.83
2019-03-18T14:18:34.364Z,2.03
2019-03-18T14:23:40.071Z,2.37
2019-03-18T14:28:45.586Z,2.00
2019-03-18T14:33:51.216Z,2.30
2019-03-18T14:38:56.704Z,2.30
2019-03-18T14:44:02.442Z,2.60
2019-03-18T14:49:08.011Z,2.50
2019-03-18T14:54:13.715Z,2.40
2019-03-18T14:59:19.345Z,2.17
2019-03-18T15:04:24.835Z,2.30
2019-03-18T15:09:30.347Z,3.07
2019-03-18T15:14:35.880Z,2.30
2019-03-18T15:19:41.427Z,2.20
2019-03-18T15:24:46.975Z,2.17
2019-03-18T15:29:52.536Z,2.40
2019-03-18T15:34:58.014Z,2.80
2019-03-18T15:40:03.877Z,2.63
2019-03-18T15:45:11.118Z,2.03
2019-03-18T15:50:17.813Z,2.60
2019-03-18T15:55:26.143Z,2.43
2019-03-18T16:00:31.903Z,2.20
2019-03-18T16:05:37.751Z,2.53
2019-03-18T16:10:43.606Z,2.33
2019-03-18T16:15:49.502Z,2.37
2019-03-18T16:20:55.009Z,2.20
2019-03-18T16:26:00.623Z,2.20
2019-03-18T16:31:06.112Z,1.97
2019-03-18T16:36:11.696Z,2.10
2019-03-18T16:41:17.291Z,2.20
2019-03-18T16:46:22.853Z,2.00
2019-03-18T16:51:28.437Z,2.40
2019-03-18T16:56:33.916Z,2.53
2019-03-18T17:01:39.517Z,2.10
2019-03-18T17:06:45.039Z,2.40
2019-03-18T17:11:50.621Z,2.80
2019-03-18T17:16:56.203Z,2.03
2019-03-18T17:22:01.783Z,2.40
2019-03-18T17:27:07.353Z,2.80
2019-03-18T17:32:12.952Z,2.47
2019-03-18T17:37:18.438Z,2.17
2019-03-18T17:42:23.968Z,2.90
2019-03-18T17:47:29.484Z,2.53
2019-03-18T17:52:35.099Z,2.03
2019-03-18T17:57:40.786Z,1.90
2019-03-18T18:02:46.299Z,2.27
2019-03-18T18:07:51.835Z,2.13
2019-03-18T18:12:57.410Z,2.40
2019-03-18T18:18:02.958Z,1.90
2019-03-18T18:23:14.099Z,2.90
2019-03-18T18:28:15.669Z,2.60
2019-03-18T18:33:21.229Z,2.60
2019-03-18T18:38:26.828Z,2.50
2019-03-18T18:43:32.301Z,2.50
2019-03-18T18:48:37.788Z,2.67
2019-03-18T18:53:43.297Z,2.57
2019-03-18T18:58:48.788Z,3.20
2019-03-18T19:03:54.284Z,3.47
2019-03-18T19:08:59.834Z,3.10
2019-03-18T19:14:05.327Z,3.23
2019-03-18T19:19:11.063Z,3.00
2019-03-18T19:24:16.748Z,3.43
2019-03-18T19:29:22.428Z,3.60
2019-03-18T19:34:28.062Z,3.27
2019-03-18T19:39:33.520Z,3.60
2019-03-18T19:44:39.031Z,3.60
2019-03-18T19:49:44.572Z,4.00
2019-03-18T19:54:50.170Z,3.63
2019-03-18T19:59:55.769Z,3.57
2019-03-18T20:05:01.281Z,3.37
2019-03-18T20:10:08.769Z,4.10
2019-03-18T20:15:14.637Z,3.77
2019-03-18T20:20:20.349Z,4.20
2019-03-18T20:25:26.094Z,3.43
2019-03-18T20:30:31.772Z,4.03
2019-03-18T20:35:37.334Z,4.47
2019-03-18T20:40:42.835Z,4.13
2019-03-18T20:45:48.382Z,3.53
2019-03-18T20:50:56.547Z,3.70
2019-03-18T20:56:01.331Z,3.80
2019-03-18T21:01:06.928Z,3.60
2019-03-18T21:06:12.471Z,3.93
2019-03-18T21:11:17.978Z,3.43
2019-03-18T21:16:24.007Z,3.73
2019-03-18T21:21:29.587Z,3.80
2019-03-18T21:26:35.128Z,3.47
2019-03-18T21:31:40.677Z,3.33
2019-03-18T21:36:46.178Z,3.77
2019-03-18T21:41:51.729Z,3.60
2019-03-18T21:46:57.258Z,3.50
2019-03-18T21:52:02.745Z,3.83
2019-03-18T21:57:08.260Z,4.00
2019-03-18T22:02:14.175Z,3.80
2019-03-18T22:07:19.784Z,3.60
2019-03-18T22:12:25.682Z,3.80
2019-03-18T22:17:31.214Z,3.23
2019-03-18T22:22:36.727Z,3.33
2019-03-18T22:27:42.259Z,3.37
2019-03-18T22:32:47.822Z,3.53
2019-03-18T22:37:53.302Z,3.10
2019-03-18T22:42:58.881Z,3.93
2019-03-18T22:48:04.602Z,3.57
2019-03-18T22:53:10.127Z,3.07
2019-03-18T22:58:15.805Z,3.40
2019-03-18T23:03:23.050Z,3.10
2019-03-18T23:08:28.737Z,3.97
2019-03-18T23:13:34.208Z,3.47
2019-03-18T23:18:39.768Z,3.80
2019-03-18T23:23:45.254Z,3.83
2019-03-18T23:28:50.779Z,2.90
2019-03-18T23:33:56.321Z,3.00
2019-03-18T23:39:01.881Z,2.87
2019-03-18T23:44:07.357Z,3.30
2019-03-18T23:49:12.843Z,3.70
2019-03-18T23:54:18.341Z,4.47
2019-03-18T23:59:23.840Z,3.20
